sensor_id;sensor_type;location;lat;lon;timestamp;temperature;humidity
46752;DHT22;32497;48.936;9.270;2023-12-14T00:03:22;6.20;92.80
46752;DHT22;32497;48.936;9.270;2023-12-14T00:08:23;6.30;92.90
46752;DHT22;32497;48.936;9.270;2023-12-14T00:13:25;6.20;92.80
46752;DHT22;32497;48.936;9.270;2023-12-14T00:18:27;6.30;92.90
46752;DHT22;32497;48.936;9.270;2023-12-14T00:23:28;6.50;92.90
46752;DHT22;32497;48.936;9.270;2023-12-14T00:28:29;6.50;92.70
46752;DHT22;32497;48.936;9.270;2023-12-14T00:33:32;6.60;92.60
46752;DHT22;32497;48.936;9.270;2023-12-14T00:38:33;6.60;92.50
46752;DHT22;32497;48.936;9.270;2023-12-14T00:43:34;6.50;92.30
46752;DHT22;32497;48.936;9.270;2023-12-14T00:48:36;6.40;92.40
46752;DHT22;32497;48.936;9.270;2023-12-14T00:53:37;6.50;92.60
46752;DHT22;32497;48.936;9.270;2023-12-14T00:58:38;6.60;92.50
46752;DHT22;32497;48.936;9.270;2023-12-14T01:03:41;6.70;92.30
46752;DHT22;32497;48.936;9.270;2023-12-14T01:08:42;6.60;92.10
46752;DHT22;32497;48.936;9.270;2023-12-14T01:13:43;6.60;92.30
46752;DHT22;32497;48.936;9.270;2023-12-14T01:18:45;6.60;92.30
46752;DHT22;32497;48.936;9.270;2023-12-14T01:23:46;6.50;92.10
46752;DHT22;32497;48.936;9.270;2023-12-14T01:28:48;6.50;92.30
46752;DHT22;32497;48.936;9.270;2023-12-14T01:33:50;6.40;92.40
46752;DHT22;32497;48.936;9.270;2023-12-14T01:38:51;6.40;92.50
46752;DHT22;32497;48.936;9.270;2023-12-14T01:43:53;6.20;92.30
46752;DHT22;32497;48.936;9.270;2023-12-14T01:48:55;6.10;92.50
46752;DHT22;32497;48.936;9.270;2023-12-14T01:53:56;6.10;92.60
46752;DHT22;32497;48.936;9.270;2023-12-14T01:58:57;6.10;92.60
46752;DHT22;32497;48.936;9.270;2023-12-14T02:04:00;6.10;92.60
46752;DHT22;32497;48.936;9.270;2023-12-14T02:09:01;6.10;92.60
46752;DHT22;32497;48.936;9.270;2023-12-14T02:14:08;6.10;92.60
46752;DHT22;32497;48.936;9.270;2023-12-14T02:19:10;6.10;92.70
46752;DHT22;32497;48.936;9.270;2023-12-14T02:24:13;6.10;92.70
46752;DHT22;32497;48.936;9.270;2023-12-14T02:29:14;6.10;92.70
46752;DHT22;32497;48.936;9.270;2023-12-14T02:34:15;6.10;92.70
46752;DHT22;32497;48.936;9.270;2023-12-14T02:39:17;6.10;92.80
46752;DHT22;32497;48.936;9.270;2023-12-14T02:44:18;6.20;92.60
46752;DHT22;32497;48.936;9.270;2023-12-14T02:49:20;6.10;92.60
46752;DHT22;32497;48.936;9.270;2023-12-14T02:54:22;6.10;92.60
46752;DHT22;32497;48.936;9.270;2023-12-14T02:59:23;6.20;92.60
46752;DHT22;32497;48.936;9.270;2023-12-14T03:04:24;6.20;92.70
46752;DHT22;32497;48.936;9.270;2023-12-14T03:09:26;6.30;92.50
46752;DHT22;32497;48.936;9.270;2023-12-14T03:14:32;6.30;92.40
46752;DHT22;32497;48.936;9.270;2023-12-14T03:19:33;6.40;92.40
46752;DHT22;32497;48.936;9.270;2023-12-14T03:24:36;6.30;92.20
46752;DHT22;32497;48.936;9.270;2023-12-14T03:29:37;6.40;92.30
46752;DHT22;32497;48.936;9.270;2023-12-14T03:34:38;6.40;92.20
46752;DHT22;32497;48.936;9.270;2023-12-14T03:39:41;6.40;92.10
46752;DHT22;32497;48.936;9.270;2023-12-14T03:44:42;6.40;92.10
46752;DHT22;32497;48.936;9.270;2023-12-14T03:49:43;6.40;92.20
46752;DHT22;32497;48.936;9.270;2023-12-14T03:54:45;6.40;92.10
46752;DHT22;32497;48.936;9.270;2023-12-14T03:59:46;6.50;92.20
46752;DHT22;32497;48.936;9.270;2023-12-14T04:04:47;6.50;92.10
46752;DHT22;32497;48.936;9.270;2023-12-14T04:09:50;6.50;92.10
46752;DHT22;32497;48.936;9.270;2023-12-14T04:14:51;6.50;92.00
46752;DHT22;32497;48.936;9.270;2023-12-14T04:19:52;6.50;92.10
46752;DHT22;32497;48.936;9.270;2023-12-14T04:24:55;6.60;92.10
46752;DHT22;32497;48.936;9.270;2023-12-14T04:29:56;6.60;92.10
46752;DHT22;32497;48.936;9.270;2023-12-14T04:34:57;6.60;92.00
46752;DHT22;32497;48.936;9.270;2023-12-14T04:39:59;6.60;92.10
46752;DHT22;32497;48.936;9.270;2023-12-14T04:45:00;6.60;92.00
46752;DHT22;32497;48.936;9.270;2023-12-14T04:50:02;6.60;92.00
46752;DHT22;32497;48.936;9.270;2023-12-14T04:55:05;6.60;92.10
46752;DHT22;32497;48.936;9.270;2023-12-14T05:00:08;6.60;92.20
46752;DHT22;32497;48.936;9.270;2023-12-14T05:05:09;6.60;92.20
46752;DHT22;32497;48.936;9.270;2023-12-14T05:10:11;6.60;92.20
46752;DHT22;32497;48.936;9.270;2023-12-14T05:15:12;6.50;92.20
46752;DHT22;32497;48.936;9.270;2023-12-14T05:20:13;6.50;92.40
46752;DHT22;32497;48.936;9.270;2023-12-14T05:25:16;6.60;92.50
46752;DHT22;32497;48.936;9.270;2023-12-14T05:30:17;6.60;92.40
46752;DHT22;32497;48.936;9.270;2023-12-14T05:35:18;6.60;92.40
46752;DHT22;32497;48.936;9.270;2023-12-14T05:40:20;6.60;92.40
46752;DHT22;32497;48.936;9.270;2023-12-14T05:45:22;6.70;92.40
46752;DHT22;32497;48.936;9.270;2023-12-14T05:50:23;6.70;92.40
46752;DHT22;32497;48.936;9.270;2023-12-14T05:55:25;6.70;92.40
46752;DHT22;32497;48.936;9.270;2023-12-14T06:00:26;6.70;92.60
46752;DHT22;32497;48.936;9.270;2023-12-14T06:05:27;6.70;92.60
46752;DHT22;32497;48.936;9.270;2023-12-14T06:10:30;6.70;92.60
46752;DHT22;32497;48.936;9.270;2023-12-14T06:15:31;6.70;92.60
46752;DHT22;32497;48.936;9.270;2023-12-14T06:20:32;6.80;92.60
46752;DHT22;32497;48.936;9.270;2023-12-14T06:25:34;6.80;92.60
46752;DHT22;32497;48.936;9.270;2023-12-14T06:30:35;6.80;92.70
46752;DHT22;32497;48.936;9.270;2023-12-14T06:35:36;6.80;92.70
46752;DHT22;32497;48.936;9.270;2023-12-14T06:40:39;6.90;92.60
46752;DHT22;32497;48.936;9.270;2023-12-14T06:45:40;6.90;92.60
46752;DHT22;32497;48.936;9.270;2023-12-14T06:50:41;6.90;92.60
46752;DHT22;32497;48.936;9.270;2023-12-14T06:55:43;6.90;92.50
46752;DHT22;32497;48.936;9.270;2023-12-14T07:00:44;7.00;92.50
46752;DHT22;32497;48.936;9.270;2023-12-14T07:05:45;7.00;92.60
46752;DHT22;32497;48.936;9.270;2023-12-14T07:10:48;7.00;92.50
46752;DHT22;32497;48.936;9.270;2023-12-14T07:15:49;7.00;92.40
46752;DHT22;32497;48.936;9.270;2023-12-14T07:20:50;7.10;92.40
46752;DHT22;32497;48.936;9.270;2023-12-14T07:25:53;7.00;92.30
46752;DHT22;32497;48.936;9.270;2023-12-14T07:30:54;7.10;92.40
46752;DHT22;32497;48.936;9.270;2023-12-14T07:35:55;7.10;92.30
46752;DHT22;32497;48.936;9.270;2023-12-14T07:40:57;7.10;92.30
46752;DHT22;32497;48.936;9.270;2023-12-14T07:45:58;7.10;92.20
46752;DHT22;32497;48.936;9.270;2023-12-14T07:50:59;7.20;92.30
46752;DHT22;32497;48.936;9.270;2023-12-14T07:56:02;7.20;92.20
46752;DHT22;32497;48.936;9.270;2023-12-14T08:01:03;7.20;92.20
46752;DHT22;32497;48.936;9.270;2023-12-14T08:06:05;7.30;92.30
46752;DHT22;32497;48.936;9.270;2023-12-14T08:11:08;7.40;92.20
46752;DHT22;32497;48.936;9.270;2023-12-14T08:16:09;7.40;91.90
46752;DHT22;32497;48.936;9.270;2023-12-14T08:21:10;7.40;92.00
46752;DHT22;32497;48.936;9.270;2023-12-14T08:26:12;7.60;92.10
46752;DHT22;32497;48.936;9.270;2023-12-14T08:31:13;7.60;91.80
46752;DHT22;32497;48.936;9.270;2023-12-14T08:36:15;7.70;92.00
46752;DHT22;32497;48.936;9.270;2023-12-14T08:41:18;7.90;91.80
46752;DHT22;32497;48.936;9.270;2023-12-14T08:46:19;7.80;91.60
46752;DHT22;32497;48.936;9.270;2023-12-14T08:51:20;7.80;91.30
46752;DHT22;32497;48.936;9.270;2023-12-14T08:56:23;8.00;91.40
46752;DHT22;32497;48.936;9.270;2023-12-14T09:01:24;8.20;91.30
46752;DHT22;32497;48.936;9.270;2023-12-14T09:06:25;8.40;91.10
46752;DHT22;32497;48.936;9.270;2023-12-14T09:11:27;8.10;89.60
46752;DHT22;32497;48.936;9.270;2023-12-14T09:16:29;7.90;90.90
46752;DHT22;32497;48.936;9.270;2023-12-14T09:21:30;8.20;91.00
46752;DHT22;32497;48.936;9.270;2023-12-14T09:26:32;7.90;91.00
46752;DHT22;32497;48.936;9.270;2023-12-14T09:31:34;8.00;91.50
46752;DHT22;32497;48.936;9.270;2023-12-14T09:36:35;8.10;91.30
46752;DHT22;32497;48.936;9.270;2023-12-14T09:41:38;8.20;90.60
46752;DHT22;32497;48.936;9.270;2023-12-14T09:46:41;8.60;90.70
46752;DHT22;32497;48.936;9.270;2023-12-14T09:51:42;8.80;90.10
46752;DHT22;32497;48.936;9.270;2023-12-14T09:56:48;8.80;88.80
46752;DHT22;32497;48.936;9.270;2023-12-14T10:01:49;9.10;89.20
46752;DHT22;32497;48.936;9.270;2023-12-14T10:06:50;9.20;87.90
46752;DHT22;32497;48.936;9.270;2023-12-14T10:12:03;8.90;88.20
46752;DHT22;32497;48.936;9.270;2023-12-14T10:17:18;8.80;88.40
46752;DHT22;32497;48.936;9.270;2023-12-14T10:22:19;8.70;88.60
46752;DHT22;32497;48.936;9.270;2023-12-14T10:27:21;8.70;88.70
46752;DHT22;32497;48.936;9.270;2023-12-14T10:32:23;8.70;88.50
46752;DHT22;32497;48.936;9.270;2023-12-14T10:37:25;8.50;88.70
46752;DHT22;32497;48.936;9.270;2023-12-14T10:42:28;8.50;88.80
46752;DHT22;32497;48.936;9.270;2023-12-14T10:47:30;8.50;88.50
46752;DHT22;32497;48.936;9.270;2023-12-14T10:52:32;8.50;89.10
46752;DHT22;32497;48.936;9.270;2023-12-14T10:57:35;8.60;89.20
46752;DHT22;32497;48.936;9.270;2023-12-14T11:02:40;8.70;89.30
46752;DHT22;32497;48.936;9.270;2023-12-14T11:07:49;8.90;89.00
46752;DHT22;32497;48.936;9.270;2023-12-14T11:12:56;9.00;88.00
46752;DHT22;32497;48.936;9.270;2023-12-14T11:18:21;9.00;87.90
46752;DHT22;32497;48.936;9.270;2023-12-14T11:23:31;9.00;88.20
46752;DHT22;32497;48.936;9.270;2023-12-14T11:28:35;9.00;87.80
46752;DHT22;32497;48.936;9.270;2023-12-14T11:33:36;9.20;87.40
46752;DHT22;32497;48.936;9.270;2023-12-14T11:38:37;9.30;87.40
46752;DHT22;32497;48.936;9.270;2023-12-14T11:43:41;9.30;87.00
46752;DHT22;32497;48.936;9.270;2023-12-14T11:48:44;9.40;87.50
46752;DHT22;32497;48.936;9.270;2023-12-14T11:53:46;9.50;87.00
46752;DHT22;32497;48.936;9.270;2023-12-14T11:58:49;9.50;86.20
46752;DHT22;32497;48.936;9.270;2023-12-14T12:03:50;9.30;86.60
46752;DHT22;32497;48.936;9.270;2023-12-14T12:08:51;9.30;86.60
46752;DHT22;32497;48.936;9.270;2023-12-14T12:13:55;9.60;85.40
46752;DHT22;32497;48.936;9.270;2023-12-14T12:18:57;9.60;85.80
46752;DHT22;32497;48.936;9.270;2023-12-14T12:23:58;9.60;85.80
46752;DHT22;32497;48.936;9.270;2023-12-14T12:29:00;9.90;85.20
46752;DHT22;32497;48.936;9.270;2023-12-14T12:34:02;9.90;84.20
46752;DHT22;32497;48.936;9.270;2023-12-14T12:39:03;9.40;85.50
46752;DHT22;32497;48.936;9.270;2023-12-14T12:44:05;8.80;87.20
46752;DHT22;32497;48.936;9.270;2023-12-14T12:49:07;8.50;89.00
46752;DHT22;32497;48.936;9.270;2023-12-14T12:54:08;8.40;89.00
46752;DHT22;32497;48.936;9.270;2023-12-14T12:59:10;8.50;89.80
46752;DHT22;32497;48.936;9.270;2023-12-14T13:04:18;8.40;89.60
46752;DHT22;32497;48.936;9.270;2023-12-14T13:09:19;8.30;89.70
46752;DHT22;32497;48.936;9.270;2023-12-14T13:14:22;8.20;89.50
46752;DHT22;32497;48.936;9.270;2023-12-14T13:19:23;7.90;89.60
46752;DHT22;32497;48.936;9.270;2023-12-14T13:24:24;7.60;90.30
46752;DHT22;32497;48.936;9.270;2023-12-14T13:29:26;7.50;90.30
46752;DHT22;32497;48.936;9.270;2023-12-14T13:34:28;7.40;90.80
46752;DHT22;32497;48.936;9.270;2023-12-14T13:39:29;7.40;90.70
46752;DHT22;32497;48.936;9.270;2023-12-14T13:44:32;7.30;91.00
46752;DHT22;32497;48.936;9.270;2023-12-14T13:49:33;7.20;90.70
46752;DHT22;32497;48.936;9.270;2023-12-14T13:54:34;7.30;91.30
46752;DHT22;32497;48.936;9.270;2023-12-14T13:59:37;7.40;90.90
46752;DHT22;32497;48.936;9.270;2023-12-14T14:04:38;7.40;91.00
46752;DHT22;32497;48.936;9.270;2023-12-14T14:09:46;7.30;90.70
46752;DHT22;32497;48.936;9.270;2023-12-14T14:14:49;7.30;91.00
46752;DHT22;32497;48.936;9.270;2023-12-14T14:19:50;7.30;91.60
46752;DHT22;32497;48.936;9.270;2023-12-14T14:24:51;7.30;91.90
46752;DHT22;32497;48.936;9.270;2023-12-14T14:29:53;7.40;91.80
46752;DHT22;32497;48.936;9.270;2023-12-14T14:34:55;7.30;91.50
46752;DHT22;32497;48.936;9.270;2023-12-14T14:39:56;7.30;91.60
46752;DHT22;32497;48.936;9.270;2023-12-14T14:44:58;7.30;91.50
46752;DHT22;32497;48.936;9.270;2023-12-14T14:49:59;7.20;91.70
46752;DHT22;32497;48.936;9.270;2023-12-14T14:55:01;7.20;91.50
46752;DHT22;32497;48.936;9.270;2023-12-14T15:00:04;7.10;91.60
46752;DHT22;32497;48.936;9.270;2023-12-14T15:05:06;7.10;91.90
46752;DHT22;32497;48.936;9.270;2023-12-14T15:10:08;7.20;92.00
46752;DHT22;32497;48.936;9.270;2023-12-14T15:15:10;7.20;92.10
46752;DHT22;32497;48.936;9.270;2023-12-14T15:20:11;7.10;91.90
46752;DHT22;32497;48.936;9.270;2023-12-14T15:25:13;7.10;91.80
46752;DHT22;32497;48.936;9.270;2023-12-14T15:30:15;7.00;91.60
46752;DHT22;32497;48.936;9.270;2023-12-14T15:35:16;7.10;91.70
46752;DHT22;32497;48.936;9.270;2023-12-14T15:40:18;7.00;91.50
46752;DHT22;32497;48.936;9.270;2023-12-14T15:45:20;6.90;91.40
46752;DHT22;32497;48.936;9.270;2023-12-14T15:50:22;7.00;91.80
46752;DHT22;32497;48.936;9.270;2023-12-14T15:55:23;6.90;91.70
46752;DHT22;32497;48.936;9.270;2023-12-14T16:00:26;6.90;91.60
46752;DHT22;32497;48.936;9.270;2023-12-14T16:05:27;6.90;91.70
46752;DHT22;32497;48.936;9.270;2023-12-14T16:10:28;7.00;91.70
46752;DHT22;32497;48.936;9.270;2023-12-14T16:15:30;6.90;91.80
46752;DHT22;32497;48.936;9.270;2023-12-14T16:20:31;7.00;91.60
46752;DHT22;32497;48.936;9.270;2023-12-14T16:25:32;6.90;91.70
46752;DHT22;32497;48.936;9.270;2023-12-14T16:30:35;7.00;91.50
46752;DHT22;32497;48.936;9.270;2023-12-14T16:35:36;7.00;91.60
46752;DHT22;32497;48.936;9.270;2023-12-14T16:40:37;6.90;91.60
46752;DHT22;32497;48.936;9.270;2023-12-14T16:45:40;7.00;91.60
46752;DHT22;32497;48.936;9.270;2023-12-14T16:50:41;7.00;91.60
46752;DHT22;32497;48.936;9.270;2023-12-14T16:55:42;6.90;91.70
46752;DHT22;32497;48.936;9.270;2023-12-14T17:00:45;6.90;91.40
46752;DHT22;32497;48.936;9.270;2023-12-14T17:05:46;6.90;91.40
46752;DHT22;32497;48.936;9.270;2023-12-14T17:10:47;6.90;91.50
46752;DHT22;32497;48.936;9.270;2023-12-14T17:15:50;6.80;91.40
46752;DHT22;32497;48.936;9.270;2023-12-14T17:20:51;6.80;91.30
46752;DHT22;32497;48.936;9.270;2023-12-14T17:25:52;6.70;91.40
46752;DHT22;32497;48.936;9.270;2023-12-14T17:30:54;6.70;91.70
46752;DHT22;32497;48.936;9.270;2023-12-14T17:35:55;6.70;92.00
46752;DHT22;32497;48.936;9.270;2023-12-14T17:40:57;6.70;92.10
46752;DHT22;32497;48.936;9.270;2023-12-14T17:45:59;6.60;92.00
46752;DHT22;32497;48.936;9.270;2023-12-14T17:51:00;6.60;92.00
46752;DHT22;32497;48.936;9.270;2023-12-14T17:56:02;6.60;91.70
46752;DHT22;32497;48.936;9.270;2023-12-14T18:01:05;6.50;91.90
46752;DHT22;32497;48.936;9.270;2023-12-14T18:06:06;6.50;92.00
46752;DHT22;32497;48.936;9.270;2023-12-14T18:11:07;6.50;91.90
46752;DHT22;32497;48.936;9.270;2023-12-14T18:16:10;6.40;91.80
46752;DHT22;32497;48.936;9.270;2023-12-14T18:21:11;6.40;91.90
46752;DHT22;32497;48.936;9.270;2023-12-14T18:26:12;6.40;92.00
46752;DHT22;32497;48.936;9.270;2023-12-14T18:31:14;6.40;91.40
46752;DHT22;32497;48.936;9.270;2023-12-14T18:36:18;6.20;91.80
46752;DHT22;32497;48.936;9.270;2023-12-14T18:41:19;6.20;91.70
46752;DHT22;32497;48.936;9.270;2023-12-14T18:46:22;6.20;91.50
46752;DHT22;32497;48.936;9.270;2023-12-14T18:51:23;6.20;91.40
46752;DHT22;32497;48.936;9.270;2023-12-14T18:56:24;6.10;91.30
46752;DHT22;32497;48.936;9.270;2023-12-14T19:01:26;6.00;91.20
46752;DHT22;32497;48.936;9.270;2023-12-14T19:06:28;5.90;91.20
46752;DHT22;32497;48.936;9.270;2023-12-14T19:11:29;6.00;91.30
46752;DHT22;32497;48.936;9.270;2023-12-14T19:16:31;5.90;91.40
46752;DHT22;32497;48.936;9.270;2023-12-14T19:21:32;5.90;91.30
46752;DHT22;32497;48.936;9.270;2023-12-14T19:26:33;5.90;91.40
46752;DHT22;32497;48.936;9.270;2023-12-14T19:31:36;5.90;91.40
46752;DHT22;32497;48.936;9.270;2023-12-14T19:36:37;5.90;91.30
46752;DHT22;32497;48.936;9.270;2023-12-14T19:41:38;5.90;91.20
46752;DHT22;32497;48.936;9.270;2023-12-14T19:46:41;5.80;91.30
46752;DHT22;32497;48.936;9.270;2023-12-14T19:51:42;5.80;91.20
46752;DHT22;32497;48.936;9.270;2023-12-14T19:56:44;5.80;91.30
46752;DHT22;32497;48.936;9.270;2023-12-14T20:01:46;5.80;91.10
46752;DHT22;32497;48.936;9.270;2023-12-14T20:06:47;5.70;91.00
46752;DHT22;32497;48.936;9.270;2023-12-14T20:11:48;5.70;91.10
46752;DHT22;32497;48.936;9.270;2023-12-14T20:16:51;5.70;91.40
46752;DHT22;32497;48.936;9.270;2023-12-14T20:21:52;5.70;91.10
46752;DHT22;32497;48.936;9.270;2023-12-14T20:26:55;5.60;90.90
46752;DHT22;32497;48.936;9.270;2023-12-14T20:31:57;5.60;91.10
46752;DHT22;32497;48.936;9.270;2023-12-14T20:36:58;5.60;90.30
46752;DHT22;32497;48.936;9.270;2023-12-14T20:41:59;5.50;90.60
46752;DHT22;32497;48.936;9.270;2023-12-14T20:47:02;5.60;90.40
46752;DHT22;32497;48.936;9.270;2023-12-14T20:52:04;5.60;89.80
46752;DHT22;32497;48.936;9.270;2023-12-14T20:57:05;5.50;89.10
46752;DHT22;32497;48.936;9.270;2023-12-14T21:02:07;5.40;89.10
46752;DHT22;32497;48.936;9.270;2023-12-14T21:07:08;5.40;88.50
46752;DHT22;32497;48.936;9.270;2023-12-14T21:12:10;5.30;88.50
46752;DHT22;32497;48.936;9.270;2023-12-14T21:17:12;5.30;87.60
46752;DHT22;32497;48.936;9.270;2023-12-14T21:22:13;5.30;87.80
46752;DHT22;32497;48.936;9.270;2023-12-14T21:27:14;5.30;87.90
46752;DHT22;32497;48.936;9.270;2023-12-14T21:32:17;5.20;88.20
46752;DHT22;32497;48.936;9.270;2023-12-14T21:37:18;5.10;88.80
46752;DHT22;32497;48.936;9.270;2023-12-14T21:42:19;5.00;89.00
46752;DHT22;32497;48.936;9.270;2023-12-14T21:47:25;5.00;89.30
46752;DHT22;32497;48.936;9.270;2023-12-14T21:52:26;5.00;90.00
46752;DHT22;32497;48.936;9.270;2023-12-14T21:57:27;5.00;90.10
46752;DHT22;32497;48.936;9.270;2023-12-14T22:02:30;4.90;90.20
46752;DHT22;32497;48.936;9.270;2023-12-14T22:07:31;4.90;90.50
46752;DHT22;32497;48.936;9.270;2023-12-14T22:12:32;4.90;91.00
46752;DHT22;32497;48.936;9.270;2023-12-14T22:17:35;4.80;91.10
46752;DHT22;32497;48.936;9.270;2023-12-14T22:22:36;4.90;91.50
46752;DHT22;32497;48.936;9.270;2023-12-14T22:27:37;4.80;91.60
46752;DHT22;32497;48.936;9.270;2023-12-14T22:32:40;4.70;91.70
46752;DHT22;32497;48.936;9.270;2023-12-14T22:37:41;4.60;91.80
46752;DHT22;32497;48.936;9.270;2023-12-14T22:42:42;4.40;91.80
46752;DHT22;32497;48.936;9.270;2023-12-14T22:47:44;4.40;92.20
46752;DHT22;32497;48.936;9.270;2023-12-14T22:52:45;4.40;92.30
46752;DHT22;32497;48.936;9.270;2023-12-14T22:57:46;4.40;92.30
46752;DHT22;32497;48.936;9.270;2023-12-14T23:02:49;4.40;92.40
46752;DHT22;32497;48.936;9.270;2023-12-14T23:07:50;4.50;92.40
46752;DHT22;32497;48.936;9.270;2023-12-14T23:12:51;4.50;92.40
46752;DHT22;32497;48.936;9.270;2023-12-14T23:17:54;4.50;92.60
46752;DHT22;32497;48.936;9.270;2023-12-14T23:22:55;4.60;92.60
46752;DHT22;32497;48.936;9.270;2023-12-14T23:27:56;4.60;92.50
46752;DHT22;32497;48.936;9.270;2023-12-14T23:32:59;4.50;92.40
46752;DHT22;32497;48.936;9.270;2023-12-14T23:38:00;4.50;92.20
46752;DHT22;32497;48.936;9.270;2023-12-14T23:43:01;4.40;92.10
46752;DHT22;32497;48.936;9.270;2023-12-14T23:48:04;4.40;92.30
46752;DHT22;32497;48.936;9.270;2023-12-14T23:53:05;4.40;92.40
46752;DHT22;32497;48.936;9.270;2023-12-14T23:58:06;4.50;92.50
